createdAt,value
2023-05-10T00:02:21.728Z,99182.84
2023-05-10T00:04:48.105Z,99185.78
2023-05-10T00:07:14.453Z,99175.97
2023-05-10T00:09:40.891Z,99176.66
2023-05-10T00:12:07.388Z,99177.59
2023-05-10T00:14:33.833Z,99176.81
2023-05-10T00:17:00.252Z,99169.63
2023-05-10T00:19:26.690Z,99178.47
2023-05-10T00:21:53.033Z,99171.41
2023-05-10T00:24:19.428Z,99170.75
2023-05-10T00:26:45.761Z,99158.22
2023-05-10T00:29:12.124Z,99164.00
2023-05-10T00:31:38.530Z,99164.97
2023-05-10T00:34:04.885Z,99162.97
2023-05-10T00:36:31.206Z,99162.84
2023-05-10T00:38:57.684Z,99159.94
2023-05-10T00:41:24.015Z,99161.28
2023-05-10T00:43:50.521Z,99158.75
2023-05-10T00:46:17.087Z,99162.34
2023-05-10T00:48:43.436Z,99161.13
2023-05-10T00:51:09.808Z,99155.38
2023-05-10T00:53:36.190Z,99128.81
2023-05-10T00:56:02.514Z,99148.84
2023-05-10T00:58:29.001Z,99145.78
2023-05-10T01:00:55.499Z,99141.31
2023-05-10T01:03:21.889Z,99140.38
2023-05-10T01:05:48.270Z,99142.31
2023-05-10T01:08:14.635Z,99144.91
2023-05-10T01:10:40.948Z,99143.28
2023-05-10T01:13:07.950Z,99139.28
2023-05-10T01:15:34.407Z,99135.94
2023-05-10T01:18:00.799Z,99128.94
2023-05-10T01:20:27.174Z,99127.03
2023-05-10T01:22:53.548Z,99134.41
2023-05-10T01:25:19.925Z,99132.38
2023-05-10T01:27:46.323Z,99132.06
2023-05-10T01:30:16.029Z,99126.16
2023-05-10T01:32:42.683Z,99126.81
2023-05-10T01:35:09.054Z,99129.06
2023-05-10T01:37:35.419Z,99123.09
2023-05-10T01:40:01.748Z,99123.25
2023-05-10T01:42:28.422Z,99123.13
2023-05-10T01:44:54.771Z,99120.25
2023-05-10T01:47:21.106Z,99128.63
2023-05-10T01:49:47.445Z,99121.88
2023-05-10T01:52:13.812Z,99127.22
2023-05-10T01:54:40.145Z,99127.53
2023-05-10T01:57:07.865Z,99124.81
2023-05-10T01:59:34.260Z,99131.25
2023-05-10T02:02:00.592Z,99132.03
2023-05-10T02:04:26.932Z,99126.53
2023-05-10T02:06:53.319Z,99120.28
2023-05-10T02:09:19.650Z,99126.72
2023-05-10T02:11:45.977Z,99114.50
2023-05-10T02:14:12.312Z,99116.84
2023-05-10T02:16:38.731Z,99108.47
2023-05-10T02:19:05.109Z,99115.34
2023-05-10T02:21:31.536Z,99118.19
2023-05-10T02:23:57.964Z,99121.16
2023-05-10T02:26:24.344Z,99115.78
2023-05-10T02:28:50.721Z,99117.22
2023-05-10T02:31:17.061Z,99116.69
2023-05-10T02:33:43.377Z,99119.66
2023-05-10T02:36:09.743Z,99117.59
2023-05-10T02:38:36.657Z,99115.66
2023-05-10T02:41:02.984Z,99117.22
2023-05-10T02:43:29.346Z,99113.75
2023-05-10T02:45:56.416Z,99121.63
2023-05-10T02:48:22.768Z,99110.50
2023-05-10T02:50:49.117Z,99113.03
2023-05-10T02:53:15.440Z,99119.22
2023-05-10T02:55:41.762Z,99123.28
2023-05-10T02:58:08.172Z,99124.66
2023-05-10T03:00:34.506Z,99120.00
2023-05-10T03:03:00.839Z,99129.69
2023-05-10T03:05:28.232Z,99120.72
2023-05-10T03:07:55.496Z,99122.66
2023-05-10T03:10:21.919Z,99125.56
2023-05-10T03:12:48.416Z,99114.25
2023-05-10T03:15:14.785Z,99109.44
2023-05-10T03:17:41.192Z,99105.13
2023-05-10T03:20:08.062Z,99109.22
2023-05-10T03:22:34.482Z,99110.72
2023-05-10T03:25:00.942Z,99111.50
2023-05-10T03:27:29.700Z,99109.16
2023-05-10T03:29:56.340Z,99108.56
2023-05-10T03:32:23.002Z,99098.38
2023-05-10T03:34:49.560Z,99104.09
2023-05-10T03:37:15.979Z,99100.50
2023-05-10T03:39:42.416Z,99094.09
2023-05-10T03:42:10.357Z,99095.03
2023-05-10T03:44:36.869Z,99099.69
2023-05-10T03:47:03.410Z,99093.28
2023-05-10T03:49:30.133Z,99102.63
2023-05-10T03:51:56.767Z,99102.81
2023-05-10T03:54:23.274Z,99093.28
2023-05-10T03:56:49.760Z,99098.78
2023-05-10T03:59:17.817Z,99092.50
2023-05-10T04:01:44.364Z,99107.41
2023-05-10T04:04:11.061Z,99098.06
2023-05-10T04:06:37.592Z,99098.16
2023-05-10T04:09:04.236Z,99095.88
2023-05-10T04:11:30.806Z,99092.94
2023-05-10T04:13:57.294Z,99103.63
2023-05-10T04:16:23.942Z,99100.50
2023-05-10T04:18:50.495Z,99099.13
2023-05-10T04:21:16.931Z,99099.91
2023-05-10T04:23:43.623Z,99099.69
2023-05-10T04:26:10.110Z,99102.16
2023-05-10T04:28:36.532Z,99097.06
2023-05-10T04:31:03.087Z,99096.34
2023-05-10T04:33:29.751Z,99097.00
2023-05-10T04:35:56.206Z,99100.31
2023-05-10T04:38:22.707Z,99100.34
2023-05-10T04:40:49.267Z,99099.84
2023-05-10T04:43:15.814Z,99091.47
2023-05-10T04:45:42.287Z,99096.19
2023-05-10T04:48:08.758Z,99097.19
2023-05-10T04:50:35.565Z,99099.59
2023-05-10T04:53:01.966Z,99097.94
2023-05-10T04:55:28.455Z,99097.50
2023-05-10T04:57:54.869Z,99098.31
2023-05-10T05:00:21.250Z,99096.16
2023-05-10T05:02:47.872Z,99091.41
2023-05-10T05:05:14.525Z,99096.66
2023-05-10T05:07:40.968Z,99109.00
2023-05-10T05:10:07.488Z,99104.44
2023-05-10T05:12:33.995Z,99095.50
2023-05-10T05:15:00.410Z,99097.56
2023-05-10T05:17:27.051Z,99090.13
2023-05-10T05:19:53.502Z,99094.13
2023-05-10T05:22:19.938Z,99101.00
2023-05-10T05:24:46.408Z,99093.19
2023-05-10T05:27:12.842Z,99090.41
2023-05-10T05:29:39.324Z,99088.41
2023-05-10T05:32:06.009Z,99098.56
2023-05-10T05:34:32.498Z,99089.34
2023-05-10T05:36:58.921Z,99095.59
2023-05-10T05:39:25.461Z,99090.41
2023-05-10T05:41:51.996Z,99088.44
2023-05-10T05:44:18.473Z,99096.34
2023-05-10T05:46:45.017Z,99089.69
2023-05-10T05:49:11.568Z,99105.94
2023-05-10T05:51:38.050Z,99092.59
2023-05-10T05:54:04.541Z,99104.50
2023-05-10T05:56:30.980Z,99097.75
2023-05-10T05:58:57.378Z,99112.38
2023-05-10T06:01:23.958Z,99104.84
2023-05-10T06:03:51.921Z,99114.06
2023-05-10T06:06:19.786Z,99102.25
2023-05-10T06:08:46.273Z,99096.69
2023-05-10T06:11:12.771Z,99102.63
2023-05-10T06:13:39.139Z,99107.38
2023-05-10T06:16:05.556Z,99099.88
2023-05-10T06:18:31.908Z,99095.16
2023-05-10T06:20:58.277Z,99097.94
2023-05-10T06:23:24.692Z,99094.75
2023-05-10T06:25:51.101Z,99090.41
2023-05-10T06:28:17.509Z,99088.47
2023-05-10T06:30:43.896Z,99096.31
2023-05-10T06:33:10.281Z,99099.06
2023-05-10T06:35:36.691Z,99092.34
2023-05-10T06:38:03.142Z,99089.56
2023-05-10T06:40:29.489Z,99086.00
2023-05-10T06:42:55.831Z,99089.97
2023-05-10T06:45:22.239Z,99085.59
2023-05-10T06:47:48.675Z,99086.44
2023-05-10T06:50:15.089Z,99085.34
2023-05-10T06:52:41.522Z,99088.09
2023-05-10T06:55:07.949Z,99086.53
2023-05-10T06:57:34.356Z,99087.34
2023-05-10T07:00:00.816Z,99090.50
2023-05-10T07:02:27.306Z,99087.38
2023-05-10T07:04:53.822Z,99092.50
2023-05-10T07:07:20.357Z,99084.19
2023-05-10T07:09:46.728Z,99081.06
2023-05-10T07:12:15.034Z,99077.91
2023-05-10T07:14:42.060Z,99084.25
2023-05-10T07:17:08.479Z,99083.47
2023-05-10T07:19:34.898Z,99083.84
2023-05-10T07:22:01.333Z,99091.34
2023-05-10T07:24:27.703Z,99079.50
2023-05-10T07:26:54.063Z,99079.50
2023-05-10T07:29:20.494Z,99087.84
2023-05-10T07:31:46.934Z,99083.84
2023-05-10T07:34:13.358Z,99079.50
2023-05-10T07:36:39.904Z,99079.91
2023-05-10T07:39:06.297Z,99085.06
2023-05-10T07:41:33.916Z,99085.88
2023-05-10T07:44:01.636Z,99085.47
2023-05-10T07:46:28.119Z,99078.75
2023-05-10T07:48:54.575Z,99077.53
2023-05-10T07:51:21.023Z,99081.50
2023-05-10T07:53:47.411Z,99076.34
2023-05-10T07:56:13.789Z,99070.81
2023-05-10T07:58:40.204Z,99071.22
2023-05-10T08:01:06.568Z,99068.81
2023-05-10T08:03:33.009Z,99066.47
2023-05-10T08:05:59.546Z,99058.53
2023-05-10T08:08:25.907Z,99063.31
2023-05-10T08:10:52.242Z,99067.28
2023-05-10T08:13:18.679Z,99070.47
2023-05-10T08:15:45.101Z,99069.31
2023-05-10T08:18:11.536Z,99066.91
2023-05-10T08:20:38.043Z,99068.50
2023-05-10T08:23:04.397Z,99070.50
2023-05-10T08:25:30.829Z,99065.75
2023-05-10T08:27:57.278Z,99067.72
2023-05-10T08:30:23.674Z,99069.31
2023-05-10T08:32:50.080Z,99076.84
2023-05-10T08:35:16.796Z,99072.88
2023-05-10T08:37:43.219Z,99081.97
2023-05-10T08:40:09.582Z,99080.41
2023-05-10T08:42:36.050Z,99078.41
2023-05-10T08:45:02.435Z,99066.53
2023-05-10T08:47:28.869Z,99072.06
2023-05-10T08:49:55.319Z,99075.25
2023-05-10T08:52:21.706Z,99078.41
2023-05-10T08:54:48.173Z,99071.28
2023-05-10T08:57:14.625Z,99068.50
2023-05-10T08:59:41.023Z,99065.75
2023-05-10T09:02:07.385Z,99081.56
2023-05-10T09:04:33.863Z,99068.91
2023-05-10T09:07:00.297Z,99065.75
2023-05-10T09:09:26.683Z,99066.16
2023-05-10T09:11:53.107Z,99074.06
2023-05-10T09:14:19.518Z,99070.09
2023-05-10T09:16:46.026Z,99067.34
2023-05-10T09:19:12.656Z,99068.13
2023-05-10T09:21:39.213Z,99072.47
2023-05-10T09:24:05.649Z,99068.91
2023-05-10T09:26:32.065Z,99059.38
2023-05-10T09:28:58.511Z,99062.94
2023-05-10T09:31:25.028Z,99062.16
2023-05-10T09:33:51.497Z,99066.53
2023-05-10T09:36:17.882Z,99066.53
2023-05-10T09:38:44.245Z,99062.94
2023-05-10T09:41:10.666Z,99065.34
2023-05-10T09:43:37.041Z,99070.09
2023-05-10T09:46:03.472Z,99063.38
2023-05-10T09:48:29.929Z,99070.06
2023-05-10T09:50:56.324Z,99061.78
2023-05-10T09:53:22.696Z,99060.97
2023-05-10T09:55:49.125Z,99063.34
2023-05-10T09:58:15.692Z,99063.75
2023-05-10T10:00:42.096Z,99058.19
2023-05-10T10:03:08.611Z,99054.22
2023-05-10T10:05:35.187Z,99054.22
2023-05-10T10:08:01.539Z,99048.69
2023-05-10T10:10:28.025Z,99049.88
2023-05-10T10:12:54.404Z,99036.00
2023-05-10T10:15:20.943Z,99036.78
2023-05-10T10:17:47.577Z,99035.19
2023-05-10T10:20:14.246Z,99038.78
2023-05-10T10:22:40.921Z,99039.16
2023-05-10T10:25:07.410Z,99039.56
2023-05-10T10:27:33.832Z,99030.03
2023-05-10T10:30:00.369Z,99040.72
2023-05-10T10:32:26.908Z,99032.78
2023-05-10T10:34:53.367Z,99035.56
2023-05-10T10:37:19.844Z,99044.66
2023-05-10T10:39:46.260Z,99035.50
2023-05-10T10:42:12.614Z,99035.09
2023-05-10T10:44:39.304Z,99035.06
2023-05-10T10:47:05.937Z,99031.88
2023-05-10T10:49:32.469Z,99028.69
2023-05-10T10:51:58.996Z,99020.75
2023-05-10T10:54:25.500Z,99018.38
2023-05-10T10:56:51.888Z,99023.13
2023-05-10T10:59:18.297Z,99020.69
2023-05-10T11:01:44.733Z,99010.41
2023-05-10T11:04:11.137Z,99012.72
2023-05-10T11:06:37.730Z,99006.38
2023-05-10T11:09:04.187Z,99014.31
2023-05-10T11:11:30.587Z,99009.19
2023-05-10T11:13:57.030Z,99017.91
2023-05-10T11:16:23.518Z,99012.72
2023-05-10T11:18:50.339Z,98999.28
2023-05-10T11:21:16.778Z,99013.53
2023-05-10T11:23:43.221Z,99015.50
2023-05-10T11:26:09.923Z,99005.53
2023-05-10T11:28:36.312Z,99009.91
2023-05-10T11:31:02.733Z,99010.66
2023-05-10T11:33:29.121Z,99011.84
2023-05-10T11:35:55.498Z,99007.84
2023-05-10T11:38:21.936Z,99008.63
2023-05-10T11:40:48.326Z,99002.31
2023-05-10T11:43:14.715Z,99003.50
2023-05-10T11:45:41.225Z,99002.31
2023-05-10T11:48:07.679Z,99003.03
2023-05-10T11:50:34.132Z,99006.19
2023-05-10T11:53:00.580Z,98999.22
2023-05-10T11:55:26.909Z,98981.66
2023-05-10T11:57:53.343Z,98999.03
2023-05-10T12:00:20.041Z,99003.84
2023-05-10T12:02:46.734Z,98997.38
2023-05-10T12:05:13.167Z,99004.56
2023-05-10T12:07:39.577Z,99004.16
2023-05-10T12:10:05.982Z,99009.31
2023-05-10T12:12:32.388Z,99008.94
2023-05-10T12:14:58.884Z,99003.41
2023-05-10T12:17:25.287Z,99004.25
2023-05-10T12:19:51.621Z,99003.84
2023-05-10T12:22:18.036Z,98999.91
2023-05-10T12:24:44.406Z,99001.13
2023-05-10T12:29:55.087Z,99004.41
2023-05-10T12:32:21.459Z,99007.16
2023-05-10T12:34:47.805Z,98992.81
2023-05-10T12:37:14.244Z,98999.19
2023-05-10T12:39:40.599Z,98995.31
2023-05-10T12:42:06.972Z,98988.97
2023-05-10T12:44:33.409Z,98989.78
2023-05-10T12:46:59.729Z,98979.47
2023-05-10T12:49:26.074Z,98986.53
2023-05-10T12:51:52.480Z,98981.31
2023-05-10T12:54:18.836Z,98980.91
2023-05-10T12:56:45.152Z,98982.84
2023-05-10T12:59:11.563Z,98980.09
2023-05-10T13:01:38.066Z,98984.78
2023-05-10T13:04:04.480Z,98980.94
2023-05-10T13:06:30.873Z,98980.94
2023-05-10T13:08:57.247Z,98977.31
2023-05-10T13:11:23.634Z,98976.91
2023-05-10T13:13:50.159Z,98964.88
2023-05-10T13:16:16.613Z,98966.41
2023-05-10T13:18:43.078Z,98976.03
2023-05-10T13:21:09.511Z,98974.50
2023-05-10T13:23:35.822Z,98977.69
2023-05-10T13:26:02.139Z,98972.16
2023-05-10T13:28:28.603Z,98967.47
2023-05-10T13:30:55.101Z,98968.31
2023-05-10T13:33:21.485Z,98965.56
2023-05-10T13:35:47.848Z,98959.63
2023-05-10T13:38:14.177Z,98957.66
2023-05-10T13:40:40.508Z,98962.00
2023-05-10T13:43:07.002Z,98962.41
2023-05-10T13:45:33.416Z,98962.38
2023-05-10T13:47:59.826Z,98952.88
2023-05-10T13:50:26.226Z,98957.94
2023-05-10T13:52:52.568Z,98953.09
2023-05-10T13:55:19.429Z,98951.47
2023-05-10T13:57:46.090Z,98953.03
2023-05-10T14:00:12.410Z,98945.06
2023-05-10T14:02:38.859Z,98939.06
2023-05-10T14:05:05.392Z,98940.69
2023-05-10T14:07:31.767Z,98941.91
2023-05-10T14:09:58.257Z,98943.81
2023-05-10T14:12:24.743Z,98939.78
2023-05-10T14:14:51.047Z,98937.34
2023-05-10T14:17:17.477Z,98938.13
2023-05-10T14:19:44.056Z,98937.66
2023-05-10T14:22:10.403Z,98937.22
2023-05-10T14:24:36.711Z,98934.00
2023-05-10T14:27:03.068Z,98933.56
2023-05-10T14:29:29.413Z,98932.41
2023-05-10T14:31:55.762Z,98930.31
2023-05-10T14:34:22.153Z,98928.66
2023-05-10T14:36:48.539Z,98933.81
2023-05-10T14:39:14.930Z,98923.91
2023-05-10T14:41:41.421Z,98930.22
2023-05-10T14:44:07.774Z,98923.44
2023-05-10T14:46:34.274Z,98925.97
2023-05-10T14:49:00.856Z,98927.19
2023-05-10T14:51:27.238Z,98930.69
2023-05-10T14:53:53.549Z,98935.06
2023-05-10T14:56:19.907Z,98929.00
2023-05-10T14:58:46.281Z,98936.13
2023-05-10T15:01:12.618Z,98931.31
2023-05-10T15:03:39.683Z,98933.75
2023-05-10T15:06:06.592Z,98930.31
2023-05-10T15:08:33.014Z,98929.91
2023-05-10T15:10:59.460Z,98928.16
2023-05-10T15:13:25.802Z,98929.66
2023-05-10T15:15:52.172Z,98925.81
2023-05-10T15:18:18.885Z,98924.59
2023-05-10T15:20:45.331Z,98923.38
2023-05-10T15:23:11.670Z,98920.69
2023-05-10T15:25:38.013Z,98920.28
2023-05-10T15:28:04.343Z,98927.00
2023-05-10T15:30:30.666Z,98927.00
2023-05-10T15:32:57.150Z,98927.84
2023-05-10T15:35:23.635Z,98925.66
2023-05-10T15:37:49.972Z,98920.78
2023-05-10T15:40:16.354Z,98935.13
2023-05-10T15:42:42.673Z,98923.97
2023-05-10T15:45:08.981Z,98934.31
2023-05-10T15:47:35.434Z,98926.78
2023-05-10T15:50:02.205Z,98927.22
2023-05-10T15:52:28.689Z,98931.59
2023-05-10T15:54:55.058Z,98929.22
2023-05-10T15:57:21.384Z,98923.25
2023-05-10T15:59:47.839Z,98923.91
2023-05-10T16:02:14.352Z,98929.31
2023-05-10T16:04:40.851Z,98930.13
2023-05-10T16:07:07.336Z,98922.19
2023-05-10T16:09:33.775Z,98918.78
2023-05-10T16:12:00.196Z,98919.41
2023-05-10T16:14:26.520Z,98925.00
2023-05-10T16:16:52.991Z,98923.84
2023-05-10T16:19:19.539Z,98932.22
2023-05-10T16:21:45.954Z,98934.22
2023-05-10T16:24:12.329Z,98937.44
2023-05-10T16:26:38.681Z,98936.75
2023-05-10T16:29:05.193Z,98932.56
2023-05-10T16:31:31.736Z,98930.63
2023-05-10T16:33:58.169Z,98932.25
2023-05-10T16:36:24.578Z,98936.88
2023-05-10T16:38:50.997Z,98933.81
2023-05-10T16:41:17.316Z,98933.41
2023-05-10T16:43:43.642Z,98940.53
2023-05-10T16:46:10.011Z,98938.88
2023-05-10T16:48:36.450Z,98937.81
2023-05-10T16:51:02.906Z,98944.94
2023-05-10T16:53:29.517Z,98944.88
2023-05-10T16:55:55.875Z,98945.25
2023-05-10T16:58:22.349Z,98949.22
2023-05-10T17:00:48.847Z,98952.78
2023-05-10T17:03:15.347Z,98959.94
2023-05-10T17:05:41.810Z,98957.59
2023-05-10T17:08:08.221Z,98958.41
2023-05-10T17:10:34.535Z,98956.47
2023-05-10T17:13:00.837Z,98960.06
2023-05-10T17:15:27.256Z,98962.47
2023-05-10T17:17:53.695Z,98966.44
2023-05-10T17:20:20.089Z,98966.06
2023-05-10T17:22:46.481Z,98973.22
2023-05-10T17:25:12.847Z,98973.56
2023-05-10T17:27:39.177Z,98977.56
2023-05-10T17:30:05.602Z,98979.13
2023-05-10T17:32:32.135Z,98978.38
2023-05-10T17:34:58.455Z,98978.81
2023-05-10T17:37:24.800Z,98982.47
2023-05-10T17:39:51.194Z,98986.44
2023-05-10T17:42:17.520Z,98978.06
2023-05-10T17:44:43.938Z,98983.69
2023-05-10T17:47:10.349Z,98988.53
2023-05-10T17:49:36.720Z,98989.56
2023-05-10T17:52:03.130Z,98990.03
2023-05-10T17:54:29.542Z,98989.69
2023-05-10T17:56:56.033Z,98994.13
2023-05-10T17:59:22.579Z,98999.59
2023-05-10T18:01:48.932Z,98996.44
2023-05-10T18:04:15.342Z,99000.88
2023-05-10T18:06:41.743Z,98999.34
2023-05-10T18:09:08.176Z,98997.72
2023-05-10T18:11:34.664Z,98998.16
2023-05-10T18:14:01.072Z,99001.75
2023-05-10T18:16:27.486Z,98999.78
2023-05-10T18:18:53.885Z,99008.13
2023-05-10T18:21:20.323Z,99002.22
2023-05-10T18:23:46.688Z,99014.53
2023-05-10T18:26:12.991Z,99008.19
2023-05-10T18:28:39.433Z,99022.88
2023-05-10T18:31:05.822Z,99007.44
2023-05-10T18:33:32.269Z,99014.59
2023-05-10T18:35:58.714Z,99017.00
2023-05-10T18:38:25.045Z,99019.34
2023-05-10T18:40:51.487Z,99016.97
2023-05-10T18:43:18.035Z,99027.28
2023-05-10T18:45:44.518Z,99026.88
2023-05-10T18:48:10.928Z,99035.22
2023-05-10T18:50:37.395Z,99034.41
2023-05-10T18:53:03.774Z,99036.81
2023-05-10T18:55:30.103Z,99042.78
2023-05-10T18:57:56.479Z,99039.59
2023-05-10T19:00:22.820Z,99049.09
2023-05-10T19:02:49.189Z,99045.53
2023-05-10T19:05:16.004Z,99047.13
2023-05-10T19:07:42.663Z,99054.25
2023-05-10T19:10:09.011Z,99049.88
2023-05-10T19:12:35.416Z,99051.84
2023-05-10T19:15:01.976Z,99059.38
2023-05-10T19:17:30.259Z,99060.13
2023-05-10T19:19:57.306Z,99051.00
2023-05-10T19:22:35.350Z,99058.53
2023-05-10T19:25:10.853Z,99068.41
2023-05-10T19:27:37.172Z,99069.56
2023-05-10T19:30:03.736Z,99069.97
2023-05-10T19:32:30.170Z,99070.75
2023-05-10T19:34:56.503Z,99070.75
2023-05-10T19:37:23.242Z,99069.06
2023-05-10T19:39:49.674Z,99069.91
2023-05-10T19:42:16.085Z,99064.28
2023-05-10T19:44:42.644Z,99070.63
2023-05-10T19:47:09.183Z,99070.19
2023-05-10T19:49:35.684Z,99065.06
2023-05-10T19:52:02.026Z,99069.38
2023-05-10T19:54:28.485Z,99067.38
2023-05-10T19:56:54.807Z,99075.28
2023-05-10T19:59:21.160Z,99072.88
2023-05-10T20:01:47.530Z,99070.88
2023-05-10T20:04:13.958Z,99073.22
2023-05-10T20:06:40.447Z,99069.66
2023-05-10T20:09:06.875Z,99073.56
2023-05-10T20:11:33.202Z,99072.19
2023-05-10T20:13:59.819Z,99070.78
2023-05-10T20:16:26.947Z,99077.88
2023-05-10T20:18:54.331Z,99080.06
2023-05-10T20:21:20.821Z,99071.41
2023-05-10T20:23:47.288Z,99073.00
2023-05-10T20:26:13.626Z,99073.41
2023-05-10T20:28:40.020Z,99081.69
2023-05-10T20:31:06.456Z,99082.47
2023-05-10T20:33:32.789Z,99081.28
2023-05-10T20:35:59.474Z,99088.78
2023-05-10T20:38:25.977Z,99084.44
2023-05-10T20:40:52.305Z,99087.53
2023-05-10T20:43:18.641Z,99090.63
2023-05-10T20:45:45.145Z,99101.59
2023-05-10T20:48:11.653Z,99097.66
2023-05-10T20:50:38.093Z,99102.81
2023-05-10T20:53:04.567Z,99096.84
2023-05-10T20:55:30.958Z,99098.66
2023-05-10T20:57:57.328Z,99097.41
2023-05-10T21:00:23.707Z,99097.66
2023-05-10T21:02:50.095Z,99096.56
2023-05-10T21:05:16.473Z,99102.09
2023-05-10T21:07:42.894Z,99099.09
2023-05-10T21:10:09.234Z,99101.88
2023-05-10T21:12:35.563Z,99105.91
2023-05-10T21:15:01.931Z,99104.75
2023-05-10T21:17:28.476Z,99109.47
2023-05-10T21:19:54.915Z,99106.31
2023-05-10T21:22:21.282Z,99102.63
2023-05-10T21:24:47.617Z,99099.56
2023-05-10T21:27:13.949Z,99110.88
2023-05-10T21:29:40.309Z,99102.09
2023-05-10T21:32:06.690Z,99104.88
2023-05-10T21:34:33.046Z,99110.31
2023-05-10T21:36:59.421Z,99111.88
2023-05-10T21:39:25.840Z,99116.19
2023-05-10T21:41:52.231Z,99108.66
2023-05-10T21:44:18.668Z,99106.16
2023-05-10T21:46:45.086Z,99117.91
2023-05-10T21:49:11.530Z,99112.31
2023-05-10T21:51:38.074Z,99115.41
2023-05-10T21:54:04.440Z,99114.63
2023-05-10T21:56:30.784Z,99114.16
2023-05-10T21:58:57.323Z,99117.59
2023-05-10T22:01:23.804Z,99119.81
2023-05-10T22:03:50.345Z,99128.50
2023-05-10T22:06:16.801Z,99120.53
2023-05-10T22:08:43.154Z,99116.59
2023-05-10T22:11:09.541Z,99122.00
2023-05-10T22:13:35.973Z,99116.50
2023-05-10T22:16:02.320Z,99126.66
2023-05-10T22:18:28.829Z,99130.06
2023-05-10T22:20:55.376Z,99125.28
2023-05-10T22:23:21.811Z,99127.91
2023-05-10T22:25:48.131Z,99129.50
2023-05-10T22:28:14.570Z,99133.25
2023-05-10T22:30:40.879Z,99128.47
2023-05-10T22:33:07.267Z,99128.03
2023-05-10T22:35:33.671Z,99128.00
2023-05-10T22:38:00.134Z,99132.03
2023-05-10T22:40:28.082Z,99127.31
2023-05-10T22:42:54.546Z,99132.59
2023-05-10T22:45:20.897Z,99133.94
2023-05-10T22:47:47.307Z,99137.50
2023-05-10T22:50:13.733Z,99139.91
2023-05-10T22:52:40.054Z,99136.16
2023-05-10T22:55:06.365Z,99140.88
2023-05-10T22:57:32.711Z,99143.19
2023-05-10T22:59:59.036Z,99139.38
2023-05-10T23:02:25.355Z,99148.56
2023-05-10T23:04:51.775Z,99139.00
2023-05-10T23:07:18.110Z,99139.97
2023-05-10T23:09:44.434Z,99139.50
2023-05-10T23:12:10.803Z,99145.91
2023-05-10T23:14:37.298Z,99142.69
2023-05-10T23:17:03.710Z,99137.91
2023-05-10T23:19:30.256Z,99140.88
2023-05-10T23:21:56.800Z,99143.59
2023-05-10T23:24:23.167Z,99146.72
2023-05-10T23:26:49.549Z,99147.50
2023-05-10T23:29:15.882Z,99146.59
2023-05-10T23:31:42.295Z,99141.69
2023-05-10T23:34:08.751Z,99149.50
2023-05-10T23:36:35.077Z,99150.53
2023-05-10T23:39:01.656Z,99151.84
2023-05-10T23:41:28.134Z,99147.91
2023-05-10T23:43:54.570Z,99139.97
2023-05-10T23:46:21.033Z,99146.75
2023-05-10T23:48:47.569Z,99137.03
2023-05-10T23:51:13.933Z,99140.06
2023-05-10T23:53:40.250Z,99142.56
2023-05-10T23:56:06.616Z,99143.66
2023-05-10T23:58:32.933Z,99141.81
